ěÝzenÝ letovÚho provozu ╚eskÚ republiky
Letiste: LKPD Aktualizace: 19.06.2024 03:02:40  UTC
 METAR LKPD 19.06. 03:00 ...
METAR LKPD 190300Z VRB03KT CAVOK 17/15 Q1012 RMK BLU=
 TAF LKPD 18.06. 23:00 ...
TAF LKPD 182300Z 1900/2000 13004KT CAVOK      BECMG 1905/1908 29008KT      PROB30 TEMPO 1913/1916 31018KT 5000 TSRA SCT025CB BKN045=